createdAt,value
2023-02-17T00:00:30.236Z,1005.69
2023-02-17T00:01:30.001Z,1005.72
2023-02-17T00:02:30.074Z,1005.67
2023-02-17T00:03:30.876Z,1005.61
2023-02-17T00:04:30.392Z,1005.56
2023-02-17T00:05:31.543Z,1005.61
2023-02-17T00:06:33.555Z,1005.58
2023-02-17T00:07:33.904Z,1005.60
2023-02-17T00:08:30.801Z,1005.63
2023-02-17T00:09:30.955Z,1005.62
2023-02-17T00:10:33.458Z,1005.61
2023-02-17T00:11:32.855Z,1005.52
2023-02-17T00:12:34.202Z,1005.47
2023-02-17T00:13:33.128Z,1005.52
2023-02-17T00:14:33.359Z,1005.47
2023-02-17T00:15:33.639Z,1005.44
2023-02-17T00:16:33.603Z,1005.43
2023-02-17T00:17:34.945Z,1005.40
2023-02-17T00:18:33.957Z,1005.42
2023-02-17T00:19:35.250Z,1005.39
2023-02-17T00:20:33.575Z,1005.36
2023-02-17T00:21:33.961Z,1005.35
2023-02-17T00:22:34.476Z,1005.34
2023-02-17T00:23:36.592Z,1005.36
2023-02-17T00:24:35.281Z,1005.35
2023-02-17T00:25:35.811Z,1005.35
2023-02-17T00:26:36.643Z,1005.35
2023-02-17T00:27:37.531Z,1005.30
2023-02-17T00:28:38.876Z,1005.36
2023-02-17T00:29:36.517Z,1005.32
2023-02-17T00:30:38.856Z,1005.28
2023-02-17T00:31:37.776Z,1005.37
2023-02-17T00:32:39.275Z,1005.35
2023-02-17T00:33:37.671Z,1005.25
2023-02-17T00:34:39.507Z,1005.23
2023-02-17T00:35:39.500Z,1005.18
2023-02-17T00:36:41.054Z,1005.19
2023-02-17T00:37:40.188Z,1005.11
2023-02-17T00:38:41.130Z,1005.11
2023-02-17T00:39:39.499Z,1005.06
2023-02-17T00:40:40.051Z,1005.07
2023-02-17T00:41:40.027Z,1005.05
2023-02-17T00:42:42.022Z,1005.08
2023-02-17T00:43:41.005Z,1005.08
2023-02-17T00:44:40.420Z,1005.01
2023-02-17T00:45:42.323Z,1005.00
2023-02-17T00:46:41.329Z,1005.00
2023-02-17T00:47:43.232Z,1005.01
2023-02-17T00:48:43.530Z,1005.00
2023-02-17T00:49:41.906Z,1004.97
2023-02-17T00:50:44.368Z,1004.93
2023-02-17T00:51:42.510Z,1004.92
2023-02-17T00:52:43.351Z,1004.92
2023-02-17T00:53:42.350Z,1004.93
2023-02-17T00:54:42.825Z,1004.93
2023-02-17T00:55:46.107Z,1004.88
2023-02-17T00:56:43.294Z,1004.84
2023-02-17T00:57:43.998Z,1004.85
2023-02-17T00:58:43.846Z,1004.81
2023-02-17T00:59:44.334Z,1004.82
2023-02-17T01:00:45.845Z,1004.84
2023-02-17T01:01:44.433Z,1004.86
2023-02-17T01:02:45.100Z,1004.85
2023-02-17T01:03:44.867Z,1004.77
2023-02-17T01:04:46.407Z,1004.88
2023-02-17T01:05:45.899Z,1004.86
2023-02-17T01:06:46.550Z,1004.82
2023-02-17T01:07:45.779Z,1004.80
2023-02-17T01:08:48.145Z,1004.86
2023-02-17T01:09:46.549Z,1004.88
2023-02-17T01:10:47.014Z,1004.84
2023-02-17T01:11:47.399Z,1004.84
2023-02-17T01:12:47.969Z,1004.78
2023-02-17T01:13:47.975Z,1004.77
2023-02-17T01:14:47.996Z,1004.79
2023-02-17T01:15:48.174Z,1004.76
2023-02-17T01:16:49.499Z,1004.74
2023-02-17T01:17:48.505Z,1004.78
2023-02-17T01:18:48.836Z,1004.73
2023-02-17T01:19:49.182Z,1004.75
2023-02-17T01:21:27.489Z,1004.77
2023-02-17T01:22:26.506Z,1004.79
2023-02-17T01:23:27.142Z,1004.82
2023-02-17T01:24:27.770Z,1004.78
2023-02-17T01:25:33.235Z,1004.81
2023-02-17T01:26:28.245Z,1004.68
2023-02-17T01:27:28.673Z,1004.70
2023-02-17T01:28:27.968Z,1004.64
2023-02-17T01:29:28.428Z,1004.65
2023-02-17T01:30:30.806Z,1004.68
2023-02-17T01:31:31.964Z,1004.65
2023-02-17T01:32:30.465Z,1004.69
2023-02-17T01:33:29.970Z,1004.66
2023-02-17T01:34:32.346Z,1004.67
2023-02-17T01:35:31.605Z,1004.68
2023-02-17T01:36:33.150Z,1004.64
2023-02-17T01:37:31.164Z,1004.64
2023-02-17T01:38:31.677Z,1004.59
2023-02-17T01:39:31.818Z,1004.60
2023-02-17T01:40:31.880Z,1004.59
2023-02-17T01:41:31.857Z,1004.53
2023-02-17T01:42:33.686Z,1004.55
2023-02-17T01:43:33.617Z,1004.55
2023-02-17T01:44:35.833Z,1004.56
2023-02-17T01:45:35.339Z,1004.53
2023-02-17T01:46:33.551Z,1004.51
2023-02-17T01:47:35.710Z,1004.49
2023-02-17T01:48:34.584Z,1004.59
2023-02-17T01:49:34.083Z,1004.51
2023-02-17T01:50:34.556Z,1004.45
2023-02-17T01:51:36.644Z,1004.48
2023-02-17T01:52:36.760Z,1004.48
2023-02-17T01:53:35.566Z,1004.45
2023-02-17T01:54:36.045Z,1004.47
2023-02-17T01:55:36.026Z,1004.44
2023-02-17T01:56:38.308Z,1004.41
2023-02-17T01:57:37.801Z,1004.42
2023-02-17T01:58:37.125Z,1004.44
2023-02-17T01:59:37.519Z,1004.38
2023-02-17T02:00:38.844Z,1004.35
2023-02-17T02:01:39.469Z,1004.31
2023-02-17T02:02:38.642Z,1004.24
2023-02-17T02:03:41.150Z,1004.31
2023-02-17T02:04:39.447Z,1004.26
2023-02-17T02:05:39.646Z,1004.29
2023-02-17T02:06:39.732Z,1004.23
2023-02-17T02:07:40.055Z,1004.22
2023-02-17T02:08:40.084Z,1004.28
2023-02-17T02:09:42.655Z,1004.15
2023-02-17T02:10:42.615Z,1004.10
2023-02-17T02:11:41.085Z,1004.17
2023-02-17T02:12:41.569Z,1004.21
2023-02-17T02:13:41.916Z,1004.20
2023-02-17T02:14:43.408Z,1004.19
2023-02-17T02:15:42.434Z,1004.16
2023-02-17T02:16:44.958Z,1004.20
2023-02-17T02:17:44.141Z,1004.13
2023-02-17T02:18:44.019Z,1004.16
2023-02-17T02:19:43.314Z,1004.22
2023-02-17T02:20:46.095Z,1004.15
2023-02-17T02:21:46.306Z,1004.09
2023-02-17T02:22:44.369Z,1004.02
2023-02-17T02:23:44.936Z,1004.06
2023-02-17T02:24:47.093Z,1004.04
2023-02-17T02:25:46.576Z,1003.96
2023-02-17T02:26:45.439Z,1003.91
2023-02-17T02:27:46.737Z,1003.93
2023-02-17T02:28:46.892Z,1003.98
2023-02-17T02:29:46.272Z,1003.94
2023-02-17T02:30:46.899Z,1003.95
2023-02-17T02:31:48.961Z,1003.92
2023-02-17T02:32:49.030Z,1003.90
2023-02-17T02:33:47.015Z,1003.92
2023-02-17T02:34:48.381Z,1003.81
2023-02-17T02:35:50.304Z,1003.85
2023-02-17T02:36:48.104Z,1003.78
2023-02-17T02:37:51.135Z,1003.81
2023-02-17T02:38:50.114Z,1003.77
2023-02-17T02:39:48.065Z,1003.79
2023-02-17T02:40:49.443Z,1003.71
2023-02-17T02:41:48.963Z,1003.71
2023-02-17T02:42:48.882Z,1003.67
2023-02-17T02:43:49.756Z,1003.70
2023-02-17T02:44:50.779Z,1003.72
2023-02-17T02:45:51.685Z,1003.73
2023-02-17T02:46:50.163Z,1003.72
2023-02-17T02:47:50.669Z,1003.70
2023-02-17T02:48:51.411Z,1003.74
2023-02-17T02:49:53.570Z,1003.70
2023-02-17T02:50:53.752Z,1003.77
2023-02-17T02:51:52.149Z,1003.71
2023-02-17T02:52:52.937Z,1003.77
2023-02-17T02:53:52.782Z,1003.75
2023-02-17T02:54:53.278Z,1003.70
2023-02-17T02:55:55.633Z,1003.62
2023-02-17T02:56:53.953Z,1003.60
2023-02-17T02:57:56.607Z,1003.60
2023-02-17T02:58:56.518Z,1003.61
2023-02-17T02:59:56.031Z,1003.58
2023-02-17T03:00:56.889Z,1003.60
2023-02-17T03:01:55.282Z,1003.64
2023-02-17T03:02:57.654Z,1003.63
2023-02-17T03:03:56.142Z,1003.61
2023-02-17T03:04:58.089Z,1003.68
2023-02-17T03:05:57.479Z,1003.67
2023-02-17T03:06:58.084Z,1003.63
2023-02-17T03:07:57.100Z,1003.63
2023-02-17T03:08:58.808Z,1003.63
2023-02-17T03:09:58.402Z,1003.61
2023-02-17T03:10:57.354Z,1003.55
2023-02-17T03:11:57.985Z,1003.49
2023-02-17T03:12:58.770Z,1003.53
2023-02-17T03:14:00.442Z,1003.52
2023-02-17T03:14:58.534Z,1003.55
2023-02-17T03:16:06.345Z,1003.59
2023-02-17T03:17:01.245Z,1003.54
2023-02-17T03:17:59.254Z,1003.60
2023-02-17T03:18:59.661Z,1003.53
2023-02-17T03:20:00.157Z,1003.56
2023-02-17T03:21:00.546Z,1003.55
2023-02-17T03:22:01.868Z,1003.52
2023-02-17T03:23:01.251Z,1003.55
2023-02-17T03:24:03.568Z,1003.56
2023-02-17T03:25:04.231Z,1003.51
2023-02-17T03:26:04.378Z,1003.52
2023-02-17T03:27:03.546Z,1003.51
2023-02-17T03:28:03.914Z,1003.54
2023-02-17T03:29:04.600Z,1003.51
2023-02-17T03:30:05.784Z,1003.49
2023-02-17T03:31:04.817Z,1003.46
2023-02-17T03:32:05.059Z,1003.47
2023-02-17T03:33:04.087Z,1003.42
2023-02-17T03:34:05.235Z,1003.48
2023-02-17T03:35:05.561Z,1003.47
2023-02-17T03:36:05.734Z,1003.49
2023-02-17T03:37:06.264Z,1003.45
2023-02-17T03:38:06.144Z,1003.37
2023-02-17T03:39:06.435Z,1003.38
2023-02-17T03:40:07.238Z,1003.44
2023-02-17T03:41:07.610Z,1003.31
2023-02-17T03:42:07.089Z,1003.27
2023-02-17T03:43:08.486Z,1003.25
2023-02-17T03:44:07.944Z,1003.28
2023-02-17T03:45:07.767Z,1003.23
2023-02-17T03:46:09.352Z,1003.17
2023-02-17T03:47:08.627Z,1003.13
2023-02-17T03:48:08.679Z,1003.03
2023-02-17T03:49:08.631Z,1003.07
2023-02-17T03:50:09.003Z,1003.09
2023-02-17T03:51:09.982Z,1003.08
2023-02-17T03:52:09.381Z,1003.06
2023-02-17T03:53:09.725Z,1002.95
2023-02-17T03:54:10.276Z,1002.96
2023-02-17T03:55:10.414Z,1002.91
2023-02-17T03:56:10.748Z,1002.95
2023-02-17T03:57:10.647Z,1002.92
2023-02-17T03:58:11.683Z,1002.90
2023-02-17T03:59:11.011Z,1003.00
2023-02-17T04:00:11.448Z,1003.00
2023-02-17T04:01:11.972Z,1002.98
2023-02-17T04:02:12.016Z,1002.92
2023-02-17T04:03:11.316Z,1002.96
2023-02-17T04:04:11.648Z,1002.94
2023-02-17T04:05:12.686Z,1002.99
2023-02-17T04:06:12.075Z,1002.92
2023-02-17T04:07:13.010Z,1002.94
2023-02-17T04:08:14.113Z,1002.88
2023-02-17T04:09:12.815Z,1002.90
2023-02-17T04:10:13.199Z,1002.90
2023-02-17T04:11:12.747Z,1002.93
2023-02-17T04:12:13.626Z,1002.99
2023-02-17T04:13:12.963Z,1003.01
2023-02-17T04:14:15.991Z,1003.00
2023-02-17T04:15:13.541Z,1003.07
2023-02-17T04:16:13.473Z,1003.11
2023-02-17T04:17:13.852Z,1003.07
2023-02-17T04:18:14.406Z,1003.09
2023-02-17T04:19:16.355Z,1003.06
2023-02-17T04:20:14.796Z,1003.10
2023-02-17T04:21:16.762Z,1003.10
2023-02-17T04:22:15.633Z,1003.08
2023-02-17T04:23:16.241Z,1002.98
2023-02-17T04:24:18.093Z,1003.03
2023-02-17T04:25:18.439Z,1002.99
2023-02-17T04:26:16.866Z,1003.06
2023-02-17T04:27:18.337Z,1003.01
2023-02-17T04:28:19.140Z,1003.05
2023-02-17T04:29:18.614Z,1003.06
2023-02-17T04:30:18.989Z,1003.06
2023-02-17T04:31:20.177Z,1003.07
2023-02-17T04:32:18.205Z,1003.09
2023-02-17T04:33:18.348Z,1003.07
2023-02-17T04:34:19.191Z,1003.06
2023-02-17T04:35:20.581Z,1003.05
2023-02-17T04:36:20.015Z,1003.04
2023-02-17T04:37:21.610Z,1003.01
2023-02-17T04:38:19.538Z,1003.00
2023-02-17T04:39:21.437Z,1003.08
2023-02-17T04:40:20.897Z,1003.05
2023-02-17T04:41:22.279Z,1003.22
2023-02-17T04:42:21.083Z,1003.10
2023-02-17T04:43:21.212Z,1003.16
2023-02-17T04:44:23.249Z,1003.11
2023-02-17T04:45:22.170Z,1003.07
2023-02-17T04:46:22.638Z,1003.05
2023-02-17T04:47:22.092Z,1003.03
2023-02-17T04:48:24.477Z,1002.98
2023-02-17T04:49:23.799Z,1003.00
2023-02-17T04:50:25.203Z,1003.01
2023-02-17T04:51:24.554Z,1002.99
2023-02-17T04:52:23.904Z,1002.94
2023-02-17T04:53:24.269Z,1002.94
2023-02-17T04:54:26.265Z,1002.95
2023-02-17T04:55:25.201Z,1003.02
2023-02-17T04:56:27.047Z,1002.96
2023-02-17T04:57:26.094Z,1003.05
2023-02-17T04:58:26.153Z,1003.04
2023-02-17T04:59:26.204Z,1003.04
2023-02-17T05:00:27.142Z,1003.13
2023-02-17T05:01:28.487Z,1003.17
2023-02-17T05:02:27.158Z,1003.19
2023-02-17T05:03:28.028Z,1003.19
2023-02-17T05:04:28.557Z,1003.20
2023-02-17T05:05:28.465Z,1003.20
2023-02-17T05:06:29.881Z,1003.15
2023-02-17T05:07:29.763Z,1003.11
2023-02-17T05:08:28.696Z,1003.18
2023-02-17T05:09:29.987Z,1003.11
2023-02-17T05:10:30.302Z,1003.15
2023-02-17T05:11:29.753Z,1003.13
2023-02-17T05:12:31.105Z,1003.10
2023-02-17T05:13:30.961Z,1003.09
2023-02-17T05:14:31.496Z,1003.11
2023-02-17T05:15:32.552Z,1003.08
2023-02-17T05:16:31.177Z,1003.08
2023-02-17T05:17:31.581Z,1003.05
2023-02-17T05:18:34.180Z,1003.01
2023-02-17T05:19:33.153Z,1002.94
2023-02-17T05:20:33.643Z,1002.90
2023-02-17T05:21:33.098Z,1002.87
2023-02-17T05:22:33.467Z,1002.75
2023-02-17T05:23:33.912Z,1002.69
2023-02-17T05:24:34.525Z,1002.67
2023-02-17T05:25:34.460Z,1002.65
2023-02-17T05:26:36.404Z,1002.61
2023-02-17T05:27:38.169Z,1002.54
2023-02-17T05:28:37.357Z,1002.61
2023-02-17T05:29:37.737Z,1002.61
2023-02-17T05:30:38.185Z,1002.65
2023-02-17T05:31:36.713Z,1002.64
2023-02-17T05:32:36.915Z,1002.66
2023-02-17T05:33:39.258Z,1002.69
2023-02-17T05:34:37.355Z,1002.68
2023-02-17T05:35:39.356Z,1002.65
2023-02-17T05:36:40.450Z,1002.71
2023-02-17T05:37:40.135Z,1002.60
2023-02-17T05:38:38.952Z,1002.55
2023-02-17T05:39:38.343Z,1002.53
2023-02-17T05:40:38.828Z,1002.61
2023-02-17T05:41:38.879Z,1002.57
2023-02-17T05:42:40.344Z,1002.58
2023-02-17T05:43:40.583Z,1002.56
2023-02-17T05:44:40.082Z,1002.61
2023-02-17T05:45:40.501Z,1002.67
2023-02-17T05:46:41.079Z,1002.54
2023-02-17T05:47:42.035Z,1002.55
2023-02-17T05:48:41.256Z,1002.53
2023-02-17T05:49:41.667Z,1002.55
2023-02-17T05:50:42.083Z,1002.61
2023-02-17T05:51:44.559Z,1002.57
2023-02-17T05:52:43.097Z,1002.57
2023-02-17T05:53:43.009Z,1002.56
2023-02-17T05:54:43.415Z,1002.56
2023-02-17T05:55:43.746Z,1002.58
2023-02-17T05:56:45.645Z,1002.41
2023-02-17T05:57:44.474Z,1002.46
2023-02-17T05:58:44.879Z,1002.39
2023-02-17T05:59:45.266Z,1002.36
2023-02-17T06:00:46.767Z,1002.31
2023-02-17T06:01:45.705Z,1002.29
2023-02-17T06:02:47.208Z,1002.39
2023-02-17T06:03:48.291Z,1002.46
2023-02-17T06:04:46.276Z,1002.37
2023-02-17T06:05:49.025Z,1002.40
2023-02-17T06:06:48.392Z,1002.44
2023-02-17T06:07:47.756Z,1002.50
2023-02-17T06:08:47.586Z,1002.54
2023-02-17T06:09:47.615Z,1002.54
2023-02-17T06:10:48.165Z,1002.52
2023-02-17T06:11:48.013Z,1002.53
2023-02-17T06:12:48.428Z,1002.47
2023-02-17T06:13:50.332Z,1002.49
2023-02-17T06:14:48.721Z,1002.48
2023-02-17T06:15:49.293Z,1002.46
2023-02-17T06:16:49.733Z,1002.46
2023-02-17T06:17:51.628Z,1002.51
2023-02-17T06:18:49.676Z,1002.55
2023-02-17T06:19:51.839Z,1002.55
2023-02-17T06:20:50.923Z,1002.52
2023-02-17T06:21:50.715Z,1002.50
2023-02-17T06:22:50.325Z,1002.42
2023-02-17T06:23:50.542Z,1002.40
2023-02-17T06:24:51.377Z,1002.34
2023-02-17T06:25:51.174Z,1002.24
2023-02-17T06:26:52.243Z,1002.26
2023-02-17T06:27:51.832Z,1002.18
2023-02-17T06:28:51.457Z,1002.09
2023-02-17T06:29:52.245Z,1002.03
2023-02-17T06:30:52.754Z,1002.04
2023-02-17T06:31:53.456Z,1002.17
2023-02-17T06:32:52.628Z,1002.16
2023-02-17T06:33:53.285Z,1002.24
2023-02-17T06:34:54.211Z,1002.18
2023-02-17T06:35:54.449Z,1002.28
2023-02-17T06:36:54.510Z,1002.27
2023-02-17T06:37:54.384Z,1002.28
2023-02-17T06:38:54.644Z,1002.31
2023-02-17T06:39:54.447Z,1002.30
2023-02-17T06:40:54.646Z,1002.27
2023-02-17T06:41:55.338Z,1002.21
2023-02-17T06:42:56.833Z,1002.23
2023-02-17T06:43:55.294Z,1002.20
2023-02-17T06:44:55.649Z,1002.24
2023-02-17T06:45:56.005Z,1002.13
2023-02-17T06:46:56.240Z,1002.11
2023-02-17T06:47:56.758Z,1002.15
2023-02-17T06:48:56.071Z,1002.19
2023-02-17T06:49:57.439Z,1002.10
2023-02-17T06:50:57.748Z,1002.14
2023-02-17T06:51:57.799Z,1002.11
2023-02-17T06:52:58.307Z,1002.13
2023-02-17T06:53:58.235Z,1002.18
2023-02-17T06:54:58.507Z,1002.19
2023-02-17T06:55:59.880Z,1002.18
2023-02-17T06:56:59.536Z,1002.15
2023-02-17T06:57:59.181Z,1002.15
2023-02-17T06:58:59.616Z,1002.03
2023-02-17T06:59:59.986Z,1002.03
2023-02-17T07:01:01.142Z,1001.98
2023-02-17T07:02:02.308Z,1002.04
2023-02-17T07:03:01.898Z,1002.09
2023-02-17T07:04:00.940Z,1002.12
2023-02-17T07:05:00.606Z,1002.17
2023-02-17T07:06:00.921Z,1002.13
2023-02-17T07:07:03.597Z,1002.09
2023-02-17T07:08:01.290Z,1002.16
2023-02-17T07:09:01.101Z,1002.19
2023-02-17T07:10:01.072Z,1002.25
2023-02-17T07:11:01.314Z,1002.30
2023-02-17T07:12:02.935Z,1002.27
2023-02-17T07:13:03.875Z,1002.26
2023-02-17T07:14:02.608Z,1002.25
2023-02-17T07:15:03.307Z,1002.26
2023-02-17T07:16:03.425Z,1002.23
2023-02-17T07:17:05.806Z,1002.19
2023-02-17T07:18:04.503Z,1002.25
2023-02-17T07:19:04.671Z,1002.21
2023-02-17T07:20:03.692Z,1002.16
2023-02-17T07:21:04.610Z,1002.29
2023-02-17T07:22:05.252Z,1002.18
2023-02-17T07:23:04.670Z,1002.28
2023-02-17T07:24:07.605Z,1002.38
2023-02-17T07:25:06.139Z,1002.33
2023-02-17T07:26:06.357Z,1002.36
2023-02-17T07:27:06.362Z,1002.41
2023-02-17T07:28:09.217Z,1002.40
2023-02-17T07:29:09.995Z,1002.37
2023-02-17T07:30:07.367Z,1002.35
2023-02-17T07:31:07.711Z,1002.35
2023-02-17T07:32:09.198Z,1002.44
2023-02-17T07:33:08.223Z,1002.48
2023-02-17T07:34:07.833Z,1002.55
2023-02-17T07:35:07.977Z,1002.46
2023-02-17T07:36:11.643Z,1002.50
2023-02-17T07:37:09.110Z,1002.47
2023-02-17T07:38:08.726Z,1002.45
2023-02-17T07:39:09.292Z,1002.44
2023-02-17T07:40:09.374Z,1002.40
2023-02-17T07:41:09.470Z,1002.36
2023-02-17T07:42:10.044Z,1002.42
2023-02-17T07:43:09.622Z,1002.37
2023-02-17T07:44:09.753Z,1002.28
2023-02-17T07:45:10.610Z,1002.29
2023-02-17T07:46:10.499Z,1002.34
2023-02-17T07:47:11.389Z,1002.26
2023-02-17T07:48:11.126Z,1002.22
2023-02-17T07:49:11.330Z,1002.24
2023-02-17T07:50:11.360Z,1002.20
2023-02-17T07:51:12.018Z,1002.13
2023-02-17T07:52:12.377Z,1002.16
2023-02-17T07:53:13.104Z,1002.16
2023-02-17T07:54:13.006Z,1002.24
2023-02-17T07:55:14.374Z,1002.16
2023-02-17T07:56:14.010Z,1002.18
2023-02-17T07:57:14.665Z,1002.08
2023-02-17T07:58:13.901Z,1002.16
2023-02-17T07:59:13.967Z,1002.13
2023-02-17T08:00:14.758Z,1002.05
2023-02-17T08:01:15.197Z,1002.07
2023-02-17T08:02:14.571Z,1002.07
2023-02-17T08:03:16.038Z,1002.12
2023-02-17T08:04:16.968Z,1002.17
2023-02-17T08:05:17.187Z,1002.22
2023-02-17T08:06:16.459Z,1002.13
2023-02-17T08:07:17.023Z,1002.14
2023-02-17T08:08:17.032Z,1002.12
2023-02-17T08:09:16.690Z,1002.05
2023-02-17T08:10:17.667Z,1002.05
2023-02-17T08:11:17.742Z,1002.07
2023-02-17T08:12:19.333Z,1002.02
2023-02-17T08:13:24.299Z,1002.06
2023-02-17T08:14:22.913Z,1001.92
2023-02-17T08:15:19.039Z,1001.86
2023-02-17T08:16:19.645Z,1001.79
2023-02-17T08:17:19.895Z,1001.84
2023-02-17T08:18:20.510Z,1001.81
2023-02-17T08:19:20.748Z,1001.76
2023-02-17T08:20:22.439Z,1001.81
2023-02-17T08:21:21.072Z,1001.68
2023-02-17T08:22:27.377Z,1001.77
2023-02-17T08:23:24.651Z,1001.69
2023-02-17T08:24:23.462Z,1001.72
2023-02-17T08:25:22.372Z,1001.73
2023-02-17T08:26:21.883Z,1001.72
2023-02-17T08:27:23.416Z,1001.79
2023-02-17T08:28:30.792Z,1001.84
2023-02-17T08:29:22.650Z,1001.88
2023-02-17T08:30:24.485Z,1001.92
2023-02-17T08:31:26.079Z,1001.92
2023-02-17T08:32:24.088Z,1001.88
2023-02-17T08:33:23.964Z,1001.83
2023-02-17T08:34:26.799Z,1001.82
2023-02-17T08:35:24.854Z,1001.84
2023-02-17T08:36:24.503Z,1001.77
2023-02-17T08:37:25.667Z,1001.81
2023-02-17T08:38:26.698Z,1001.71
2023-02-17T08:39:27.830Z,1001.74
2023-02-17T08:40:26.266Z,1001.69
2023-02-17T08:41:25.439Z,1001.70
2023-02-17T08:42:25.592Z,1001.70
2023-02-17T08:43:26.366Z,1001.64
2023-02-17T08:44:26.551Z,1001.71
2023-02-17T08:45:27.466Z,1001.65
2023-02-17T08:46:27.240Z,1001.68
2023-02-17T08:47:27.612Z,1001.76
2023-02-17T08:48:31.450Z,1001.77
2023-02-17T08:49:28.932Z,1001.78
2023-02-17T08:50:30.468Z,1001.73
2023-02-17T08:51:29.052Z,1001.73
2023-02-17T08:52:29.528Z,1001.80
2023-02-17T08:53:31.016Z,1001.71
2023-02-17T08:54:30.646Z,1001.72
2023-02-17T08:55:35.577Z,1001.69
2023-02-17T08:56:30.717Z,1001.70
2023-02-17T08:57:30.346Z,1001.68
2023-02-17T08:58:30.244Z,1001.67
2023-02-17T08:59:30.288Z,1001.70
2023-02-17T09:00:32.072Z,1001.75
2023-02-17T09:01:31.519Z,1001.71
2023-02-17T09:02:31.106Z,1001.73
2023-02-17T09:03:36.871Z,1001.67
2023-02-17T09:04:32.367Z,1001.75
2023-02-17T09:05:32.391Z,1001.72
2023-02-17T09:06:32.301Z,1001.67
2023-02-17T09:07:33.210Z,1001.69
2023-02-17T09:08:33.289Z,1001.67
2023-02-17T09:09:34.390Z,1001.65
2023-02-17T09:10:32.558Z,1001.65
2023-02-17T09:11:33.600Z,1001.64
2023-02-17T09:12:34.254Z,1001.58
2023-02-17T09:13:33.971Z,1001.55
2023-02-17T09:14:33.890Z,1001.63
2023-02-17T09:15:37.765Z,1001.60
2023-02-17T09:16:35.234Z,1001.63
2023-02-17T09:17:35.060Z,1001.57
2023-02-17T09:18:37.165Z,1001.62
2023-02-17T09:19:34.624Z,1001.64
2023-02-17T09:20:34.692Z,1001.68
2023-02-17T09:21:35.128Z,1001.75
2023-02-17T09:22:36.215Z,1001.67
2023-02-17T09:23:35.612Z,1001.80
2023-02-17T09:24:37.091Z,1001.76
2023-02-17T09:25:36.032Z,1001.73
2023-02-17T09:26:36.741Z,1001.78
2023-02-17T09:27:36.422Z,1001.79
2023-02-17T09:28:36.795Z,1001.72
2023-02-17T09:29:37.256Z,1001.75
2023-02-17T09:30:36.611Z,1001.65
2023-02-17T09:31:38.479Z,1001.57
2023-02-17T09:32:37.177Z,1001.60
2023-02-17T09:33:39.418Z,1001.52
2023-02-17T09:34:38.606Z,1001.54
2023-02-17T09:35:37.862Z,1001.51
2023-02-17T09:36:39.522Z,1001.46
2023-02-17T09:37:38.926Z,1001.43
2023-02-17T09:38:40.200Z,1001.44
2023-02-17T09:39:40.200Z,1001.44
2023-02-17T09:40:42.999Z,1001.43
2023-02-17T09:41:43.704Z,1001.41
2023-02-17T09:42:40.790Z,1001.45
2023-02-17T09:43:41.775Z,1001.48
2023-02-17T09:44:47.144Z,1001.50
2023-02-17T09:45:42.019Z,1001.43
2023-02-17T09:46:52.618Z,1001.51
2023-02-17T09:47:44.801Z,1001.55
2023-02-17T09:48:44.419Z,1001.49
2023-02-17T09:49:43.170Z,1001.52
2023-02-17T09:50:44.413Z,1001.44
2023-02-17T09:51:44.868Z,1001.51
2023-02-17T09:52:44.188Z,1001.44
2023-02-17T09:53:43.652Z,1001.44
2023-02-17T09:54:46.797Z,1001.42
2023-02-17T09:55:46.139Z,1001.42
2023-02-17T09:56:44.993Z,1001.40
2023-02-17T09:57:50.384Z,1001.35
2023-02-17T09:58:49.121Z,1001.39
2023-02-17T09:59:48.838Z,1001.46
2023-02-17T10:00:48.733Z,1001.47
2023-02-17T10:01:48.799Z,1001.45
2023-02-17T10:02:48.139Z,1001.48
2023-02-17T10:03:46.257Z,1001.43
2023-02-17T10:04:51.417Z,1001.51
2023-02-17T10:06:10.709Z,1001.49
2023-02-17T10:07:23.050Z,1001.59
2023-02-17T10:08:49.674Z,1001.53
2023-02-17T10:09:51.646Z,1001.56
2023-02-17T10:10:48.594Z,1001.69
2023-02-17T10:11:50.187Z,1001.65
2023-02-17T10:12:48.445Z,1001.63
2023-02-17T10:13:49.688Z,1001.66
2023-02-17T10:14:49.767Z,1001.70
2023-02-17T10:15:51.032Z,1001.75
2023-02-17T10:16:50.562Z,1001.73
2023-02-17T10:17:51.698Z,1001.74
2023-02-17T10:21:12.913Z,1001.85
2023-02-17T10:22:19.160Z,1001.87
2023-02-17T10:23:14.425Z,1001.81
2023-02-17T10:24:16.436Z,1001.75
2023-02-17T10:25:12.157Z,1001.77
2023-02-17T10:26:11.611Z,1001.76
2023-02-17T10:27:12.051Z,1001.73
2023-02-17T10:28:12.061Z,1001.72
2023-02-17T10:29:11.841Z,1001.75
2023-02-17T10:30:12.617Z,1001.71
2023-02-17T10:31:12.257Z,1001.74
2023-02-17T10:32:12.485Z,1001.74
2023-02-17T10:33:13.263Z,1001.69
2023-02-17T10:34:12.262Z,1001.75
2023-02-17T10:35:12.651Z,1001.66
2023-02-17T10:36:13.150Z,1001.59
2023-02-17T10:37:14.939Z,1001.57
2023-02-17T10:38:15.013Z,1001.59
2023-02-17T10:39:13.452Z,1001.70
2023-02-17T10:40:13.576Z,1001.70
2023-02-17T10:41:13.450Z,1001.67
2023-02-17T10:42:14.940Z,1001.77
2023-02-17T10:43:15.367Z,1001.72
2023-02-17T10:44:15.451Z,1001.79
2023-02-17T10:45:15.814Z,1001.71
2023-02-17T10:46:16.224Z,1001.58
2023-02-17T10:47:16.444Z,1001.62
2023-02-17T10:48:17.637Z,1001.55
2023-02-17T10:49:17.765Z,1001.67
2023-02-17T10:50:17.158Z,1001.68
2023-02-17T10:51:17.678Z,1001.75
2023-02-17T10:52:17.486Z,1001.74
2023-02-17T10:53:17.597Z,1001.70
2023-02-17T10:54:19.444Z,1001.62
2023-02-17T10:55:23.273Z,1001.60
2023-02-17T10:56:19.060Z,1001.59
2023-02-17T10:57:17.600Z,1001.45
2023-02-17T10:58:22.711Z,1001.43
2023-02-17T10:59:19.515Z,1001.39
2023-02-17T11:00:20.664Z,1001.38
2023-02-17T11:01:20.113Z,1001.33
2023-02-17T11:02:21.915Z,1001.25
2023-02-17T11:03:20.403Z,1001.26
2023-02-17T11:04:19.983Z,1001.24
2023-02-17T11:05:21.151Z,1001.22
2023-02-17T11:06:22.220Z,1001.21
2023-02-17T11:07:24.148Z,1001.17
2023-02-17T11:08:25.043Z,1001.26
2023-02-17T11:09:22.215Z,1001.37
2023-02-17T11:10:21.622Z,1001.10
2023-02-17T11:11:21.779Z,1001.18
2023-02-17T11:12:24.807Z,1001.14
2023-02-17T11:13:20.541Z,1001.07
2023-02-17T11:14:21.752Z,1001.07
2023-02-17T11:15:24.548Z,1001.16
2023-02-17T11:16:24.365Z,1001.08
2023-02-17T11:17:31.334Z,1001.14
2023-02-17T11:18:23.396Z,1001.05
2023-02-17T11:19:23.729Z,1001.11
2023-02-17T11:20:24.251Z,1001.11
2023-02-17T11:21:25.390Z,1001.12
2023-02-17T11:22:24.249Z,1001.10
2023-02-17T11:23:24.332Z,1001.12
2023-02-17T11:24:27.589Z,1001.13
2023-02-17T11:25:24.550Z,1001.06
2023-02-17T11:26:26.457Z,1001.08
2023-02-17T11:27:29.561Z,1001.08
2023-02-17T11:28:24.687Z,1001.06
2023-02-17T11:29:25.656Z,1001.10
2023-02-17T11:30:27.519Z,1001.05
2023-02-17T11:31:26.562Z,1001.08
2023-02-17T11:32:26.677Z,1001.10
2023-02-17T11:33:26.853Z,1001.11
2023-02-17T11:34:29.118Z,1001.09
2023-02-17T11:35:27.487Z,1001.05
2023-02-17T11:36:26.760Z,1001.08
2023-02-17T11:37:27.909Z,1001.07
2023-02-17T11:38:27.837Z,1001.05
2023-02-17T11:39:30.360Z,1001.07
2023-02-17T11:40:28.079Z,1000.93
2023-02-17T11:41:27.390Z,1000.83
2023-02-17T11:42:28.760Z,1000.78
2023-02-17T11:43:28.552Z,1000.85
2023-02-17T11:44:30.201Z,1000.72
2023-02-17T11:45:31.409Z,1000.75
2023-02-17T11:46:29.290Z,1000.60
2023-02-17T11:47:29.255Z,1000.72
2023-02-17T11:48:29.254Z,1000.62
2023-02-17T11:49:30.283Z,1000.59
2023-02-17T11:50:40.864Z,1000.62
2023-02-17T11:51:30.280Z,1000.44
2023-02-17T11:52:30.050Z,1000.45
2023-02-17T11:53:30.926Z,1000.45
2023-02-17T11:54:31.853Z,1000.39
2023-02-17T11:55:30.653Z,1000.38
2023-02-17T11:56:31.011Z,1000.44
2023-02-17T11:57:32.668Z,1000.37
2023-02-17T11:58:32.259Z,1000.46
2023-02-17T11:59:32.138Z,1000.38
2023-02-17T12:00:35.147Z,1000.49
2023-02-17T12:01:31.655Z,1000.43
2023-02-17T12:02:32.447Z,1000.32
2023-02-17T12:03:36.748Z,1000.32
2023-02-17T12:04:32.783Z,1000.34
2023-02-17T12:05:36.081Z,1000.43
2023-02-17T12:06:34.791Z,1000.40
2023-02-17T12:07:33.743Z,1000.22
2023-02-17T12:08:33.424Z,1000.29
2023-02-17T12:09:34.081Z,1000.17
2023-02-17T12:10:37.270Z,1000.17
2023-02-17T12:11:43.385Z,1000.16
2023-02-17T12:12:38.516Z,1000.36